Meteo Giornale » Osservazioni meteo India » Lucknow-Amausi
ore: 06:00 - Osservazioni Meteo Lucknow-Amausi
Lat. 26° 45' N Lon. 80° 53' E Alt. 122 metri s.l.m.
27 °C
Foschia
Temp. 24 Ore
26 °C
31 °C
Est
14.8 Km/h
Dew point 26 °C
Umidità 94 %
Visibilità 3 Km
Il sole sorge alle ore 05:45
Il sole tramonta alle ore 18:27
| Data e Ora | Cielo e Fenomeni | T °C | DP °C | Um. % | Pres. hPa | Vis. km | Vento km/h | |
|---|---|---|---|---|---|---|---|---|
| Oggi h: 06:00 | Foschia | 27 | 26 | 94 | 1003 | 3 | E 14.8 | |
| Oggi h: 05:30 | Foschia | 27 | 26 | 94 | 1003 | 3 | E 9.3 | |
| Oggi h: 05:00 | Foschia | 27 | 26 | 94 | 1002 | 3 | E 11.1 | |
| Oggi h: 04:30 | Foschia | 27 | 27 | 100 | 1002 | 3 | E 11.1 | |
| Oggi h: 04:00 | Foschia | 27 | 27 | 100 | 1002 | 3 | E 9.3 | |
| Oggi h: 03:30 | Foschia | 27 | 27 | 100 | 1002 | 3 | NE 9.3 | |
| Oggi h: 03:00 | Foschia | 27 | 27 | 100 | 1002 | 3 | NE 7.4 | |
| Oggi h: 02:30 | Foschia | 27 | 27 | 100 | 1002 | 3 | N 5.5 | |
| Oggi h: 02:00 | Foschia | 27 | 27 | 100 | 1002 | 3 | N/NE 7.4 | |
| Oggi h: 01:30 | Foschia | 27 | 27 | 100 | 1003 | 3 | N 5.5 | |
| Oggi h: 01:00 | Foschia | 27 | 27 | 100 | 1003 | 3 | N 3.7 | |
| Oggi h: 00:30 | Foschia | 27 | 27 | 100 | 1003 | 3 | N 5.5 | |
| Oggi h: 00:00 | Foschia | 27 | 27 | 100 | 1003 | 3 | N 3.7 | |
| Ieri h: 23:30 | Foschia | 27 | 27 | 100 | 1003 | 3 | N 5.5 | |
| Ieri h: 23:00 | Foschia | 27 | 27 | 100 | 1003 | 3 | NO 7.4 | |
| Ieri h: 22:30 | Foschia | 27 | 27 | 100 | 1004 | 3 | N 3.7 | |
| Ieri h: 22:00 | Foschia | 27 | 27 | 100 | 1003 | 3 | O/NO 11.1 | |
| Ieri h: 21:30 | Pioviggine | 27 | 27 | 100 | 1003 | 3 | O 7.4 | |
| Ieri h: 21:00 | Temporale | 27 | 27 | 100 | 1003 | 3 | O/SO 9.3 | |
| Ieri h: 20:30 | Temporale | 26 | 26 | 100 | 1003 | 2 | N 3.7 | |
| Ieri h: 20:00 | Temporale | 26 | 26 | 100 | 1002 | 2 | N/NE 16.7 | |
| Ieri h: 19:30 | Temporale | 27 | 26 | 94 | 1002 | 3 | NE 22.2 | |
| Ieri h: 19:00 | Temporale | 29 | 28 | 94 | 1002 | 4 | N 11.1 | |
| Ieri h: 18:30 | Temporale | 29 | 27 | 89 | 1002 | 4 | N 5.5 | |
| Ieri h: 18:00 | Foschia | 29 | 27 | 89 | 1001 | 4 | N 5.5 | |
| Ieri h: 17:30 | Foschia | 29 | 27 | 89 | 1001 | 4 | O/SO 7.4 | |
| Ieri h: 17:00 | Foschia | 29 | 27 | 89 | 1000 | 4 | O/SO 9.3 | |
| Ieri h: 16:30 | Foschia | 30 | 29 | 94 | 1000 | 4 | O 14.8 | |
| Ieri h: 16:00 | Foschia | 29 | 27 | 89 | 1000 | 4 | O/SO 14.8 | |
| Ieri h: 15:30 | Foschia | 29 | 27 | 89 | 1000 | 4 | O/SO 14.8 | |
| Ieri h: 15:00 | Foschia | 30 | 28 | 89 | 1001 | 4 | O/SO 14.8 | |
| Ieri h: 14:30 | Foschia | 30 | 28 | 89 | 1000 | 4 | O/NO 20.3 | |
| Ieri h: 14:00 | Foschia | 28 | 27 | 94 | 1001 | 4 | O 13 | |
| Ieri h: 13:30 | Foschia | 27 | 27 | 100 | 1002 | 3 | O 16.7 | |
| Ieri h: 13:00 | Pioggia | 27 | 26 | 94 | 1002 | 2 | O/SO 20.3 | |
| Ieri h: 12:35 | Temporale | 27 | 26 | 94 | 1003 | 2 | O 22.2 | |
| Ieri h: 12:30 | Pioggia | 28 | 27 | 94 | 1003 | 2 | O 22.2 | |
| Ieri h: 12:00 | Foschia | 31 | 28 | 84 | 1003 | 4 | O/SO 13 | |
| Ieri h: 11:30 | Foschia | 30 | 28 | 89 | 1003 | 4 | O/SO 9.3 | |
| Ieri h: 11:00 | Pioviggine | 29 | 28 | 94 | 1003 | 3 | O/SO 9.3 | |
| Ieri h: 10:30 | Pioviggine | 29 | 28 | 94 | 1003 | 4 | O 11.1 | |
| Ieri h: 10:00 | Pioviggine | 29 | 28 | 94 | 1003 | 4 | O 13 | |
| Ieri h: 09:30 | Foschia | 29 | 28 | 94 | 1003 | 4 | O 11.1 | |
| Ieri h: 09:00 | Foschia | 29 | 28 | 94 | 1003 | 4 | O 13 | |
| Ieri h: 08:30 | Foschia | 29 | 28 | 94 | 1003 | 4 | O 9.3 | |
| Ieri h: 08:00 | Foschia | 29 | 27 | 89 | 1003 | 4 | O/SO 7.4 | |
| Ieri h: 07:30 | Foschia | 28 | 27 | 94 | 1003 | 3 | N 5.5 | |



